Arviat Airport
CYEK : now visible

Airfield :











YOU CAN JOIN US ON...

 
LOGIN :

Register | Disclaimer

   EN    FR    IT 

 









Legend :    VFR   Marginal VFR   IFR   Intensive IFR   Very Intensive IFR
Visi :
Ceiling :
>= 8 km
>= 3000ft
5 to 8 km
1000 to 3000 ft
1500m to 5 km
500 to 1000 ft
800 to 1500m
200 to 500 ft
< 800m
< 200 ft
Symbols :   Thunderstorms  Fog  Heavy snow  Heavy precipitations  Wind > 20 kt






- Airport Elevation : 32 ft
- IATA code : YEK


CYEK - Arviat

CURRENT METAR :
  • 271800Z 36019KT 15SM OVC018 M12/M13 A3004 RMK ST8 SLP177

EXPIRED METARs :
  • 271700Z 36017G22KT 15SM OVC020 M11/M12 A3002 RMK SC8 SLP168
  • 271600Z 36014KT 15SM SCT025 OVC040 M10/M11 A2998 RMK SC3SC5 SLP157
  • 271500Z 35013KT 15SM BKN016 OVC023 M09/M09 A2995 RMK SC6SC2 SLP147

TAF TAF CYEK
Valid from the 27 at 18:00 until the 28 at 06:00 UTC


271738Z 2718/2806 36015G25KT P6SM SCT020 OVC040
TEMPO 2718/2722 11/2SM -SN BLSN OVC020
FM272200 36015KT P6SM SCT020
TEMPO 2722/2806 4SM -SN BKN020
BECMG 2801/2803 01010KT RMK NXT FCST BY 280000Z



MET'MAP, your aeronautical weather chart ! - Copyright ORBIFLY December 2007 - Disclaimer

ORBIFLY MET'MAP TEAM :

Programming & Development : Alexandra Zaïnal
Concept & original design : Baudouin d'Aumeries
Assistance for programming : Marc-Olivier Méhu
Technical & hardware support : Manuel Goepfert

Contact : metmap@orbifly.com




SOURCES & CREDITS :

   NOAA       Earth
Advisory